sensor_id;sensor_type;location;lat;lon;timestamp;pressure;altitude;pressure_sealevel;temperature;humidity
16255;BME280;8235;52.198;9.904;2023-10-19T00:02:44;99301.47;;;7.50;100.00
16255;BME280;8235;52.198;9.904;2023-10-19T00:05:10;99294.59;;;7.47;100.00
16255;BME280;8235;52.198;9.904;2023-10-19T00:07:38;99293.75;;;7.47;100.00
16255;BME280;8235;52.198;9.904;2023-10-19T00:10:06;99282.50;;;7.43;100.00
16255;BME280;8235;52.198;9.904;2023-10-19T00:12:32;99282.50;;;7.43;100.00
16255;BME280;8235;52.198;9.904;2023-10-19T00:14:58;99296.81;;;7.41;100.00
16255;BME280;8235;52.198;9.904;2023-10-19T00:17:24;99289.72;;;7.41;100.00
16255;BME280;8235;52.198;9.904;2023-10-19T00:19:52;99279.13;;;7.41;100.00
16255;BME280;8235;52.198;9.904;2023-10-19T00:22:23;99268.41;;;7.43;100.00
16255;BME280;8235;52.198;9.904;2023-10-19T00:24:49;99271.19;;;7.41;100.00
16255;BME280;8235;52.198;9.904;2023-10-19T00:27:16;99272.25;;;7.39;100.00
16255;BME280;8235;52.198;9.904;2023-10-19T00:29:44;99269.81;;;7.36;100.00
16255;BME280;8235;52.198;9.904;2023-10-19T00:32:15;99262.81;;;7.35;100.00
16255;BME280;8235;52.198;9.904;2023-10-19T00:34:43;99254.06;;;7.34;100.00
16255;BME280;8235;52.198;9.904;2023-10-19T00:37:17;99259.47;;;7.32;100.00
16255;BME280;8235;52.198;9.904;2023-10-19T00:39:46;99249.94;;;7.30;100.00
16255;BME280;8235;52.198;9.904;2023-10-19T00:42:17;99244.53;;;7.31;100.00
16255;BME280;8235;52.198;9.904;2023-10-19T00:44:49;99238.38;;;7.31;100.00
16255;BME280;8235;52.198;9.904;2023-10-19T00:47:16;99241.03;;;7.31;100.00
16255;BME280;8235;52.198;9.904;2023-10-19T00:49:44;99236.69;;;7.30;100.00
16255;BME280;8235;52.198;9.904;2023-10-19T00:52:12;99234.03;;;7.30;100.00
16255;BME280;8235;52.198;9.904;2023-10-19T00:54:45;99238.28;;;7.32;100.00
16255;BME280;8235;52.198;9.904;2023-10-19T00:57:18;99236.59;;;7.31;100.00
16255;BME280;8235;52.198;9.904;2023-10-19T00:59:48;99231.28;;;7.31;100.00
16255;BME280;8235;52.198;9.904;2023-10-19T01:02:18;99230.53;;;7.29;100.00
16255;BME280;8235;52.198;9.904;2023-10-19T01:04:55;99214.75;;;7.28;100.00
16255;BME280;8235;52.198;9.904;2023-10-19T01:07:25;99208.50;;;7.29;100.00
16255;BME280;8235;52.198;9.904;2023-10-19T01:09:54;99198.88;;;7.28;100.00
16255;BME280;8235;52.198;9.904;2023-10-19T01:12:23;99205.97;;;7.27;100.00
16255;BME280;8235;52.198;9.904;2023-10-19T01:15:06;99205.13;;;7.27;100.00
16255;BME280;8235;52.198;9.904;2023-10-19T01:17:33;99196.34;;;7.26;100.00
16255;BME280;8235;52.198;9.904;2023-10-19T01:20:06;99200.69;;;7.27;100.00
16255;BME280;8235;52.198;9.904;2023-10-19T01:22:48;99195.38;;;7.27;100.00
16255;BME280;8235;52.198;9.904;2023-10-19T01:25:15;99185.00;;;7.24;100.00
16255;BME280;8235;52.198;9.904;2023-10-19T01:27:49;99179.81;;;7.23;100.00
16255;BME280;8235;52.198;9.904;2023-10-19T01:30:19;99171.25;;;7.19;100.00
16255;BME280;8235;52.198;9.904;2023-10-19T01:32:46;99167.03;;;7.17;100.00
16255;BME280;8235;52.198;9.904;2023-10-19T01:35:12;99166.06;;;7.18;100.00
16255;BME280;8235;52.198;9.904;2023-10-19T01:37:39;99155.63;;;7.16;100.00
16255;BME280;8235;52.198;9.904;2023-10-19T01:40:07;99150.53;;;7.13;100.00
16255;BME280;8235;52.198;9.904;2023-10-19T01:42:34;99145.25;;;7.13;100.00
16255;BME280;8235;52.198;9.904;2023-10-19T01:45:00;99142.59;;;7.13;100.00
16255;BME280;8235;52.198;9.904;2023-10-19T01:47:26;99134.53;;;7.15;100.00
16255;BME280;8235;52.198;9.904;2023-10-19T01:49:53;99133.59;;;7.16;100.00
16255;BME280;8235;52.198;9.904;2023-10-19T01:52:20;99124.06;;;7.13;100.00
16255;BME280;8235;52.198;9.904;2023-10-19T01:54:49;99112.97;;;7.08;100.00
16255;BME280;8235;52.198;9.904;2023-10-19T01:57:25;99112.34;;;7.05;100.00
16255;BME280;8235;52.198;9.904;2023-10-19T01:59:51;99105.97;;;7.07;100.00
16255;BME280;8235;52.198;9.904;2023-10-19T02:02:17;99099.22;;;7.03;100.00
16255;BME280;8235;52.198;9.904;2023-10-19T02:04:43;99096.66;;;7.02;100.00
16255;BME280;8235;52.198;9.904;2023-10-19T02:07:10;99102.22;;;6.99;100.00
16255;BME280;8235;52.198;9.904;2023-10-19T02:09:43;99097.88;;;6.97;100.00
16255;BME280;8235;52.198;9.904;2023-10-19T02:12:09;99093.44;;;6.98;100.00
16255;BME280;8235;52.198;9.904;2023-10-19T02:14:37;99092.81;;;6.94;100.00
16255;BME280;8235;52.198;9.904;2023-10-19T02:17:02;99091.22;;;6.92;100.00
16255;BME280;8235;52.198;9.904;2023-10-19T02:19:30;99085.06;;;6.91;100.00
16255;BME280;8235;52.198;9.904;2023-10-19T02:21:56;99090.38;;;6.91;100.00
16255;BME280;8235;52.198;9.904;2023-10-19T02:24:24;99081.47;;;6.92;100.00
16255;BME280;8235;52.198;9.904;2023-10-19T02:26:51;99085.94;;;6.92;100.00
16255;BME280;8235;52.198;9.904;2023-10-19T02:29:18;99085.06;;;6.91;100.00
16255;BME280;8235;52.198;9.904;2023-10-19T02:31:45;99074.59;;;6.90;100.00
16255;BME280;8235;52.198;9.904;2023-10-19T02:34:13;99070.88;;;6.92;100.00
16255;BME280;8235;52.198;9.904;2023-10-19T02:36:41;99062.22;;;6.90;100.00
16255;BME280;8235;52.198;9.904;2023-10-19T02:39:08;99058.63;;;6.91;100.00
16255;BME280;8235;52.198;9.904;2023-10-19T02:41:35;99054.38;;;6.89;100.00
16255;BME280;8235;52.198;9.904;2023-10-19T02:44:02;99064.03;;;6.90;100.00
16255;BME280;8235;52.198;9.904;2023-10-19T02:46:31;99059.56;;;6.90;100.00
16255;BME280;8235;52.198;9.904;2023-10-19T02:49:01;99056.19;;;6.88;100.00
16255;BME280;8235;52.198;9.904;2023-10-19T02:51:28;99053.97;;;6.82;100.00
16255;BME280;8235;52.198;9.904;2023-10-19T02:53:54;99052.53;;;6.78;100.00
16255;BME280;8235;52.198;9.904;2023-10-19T02:56:20;99045.44;;;6.79;100.00
16255;BME280;8235;52.198;9.904;2023-10-19T02:58:49;99038.94;;;6.83;100.00
16255;BME280;8235;52.198;9.904;2023-10-19T03:01:16;99052.19;;;6.83;100.00
16255;BME280;8235;52.198;9.904;2023-10-19T03:03:50;99029.22;;;6.83;100.00
16255;BME280;8235;52.198;9.904;2023-10-19T03:06:19;99038.09;;;6.82;100.00
16255;BME280;8235;52.198;9.904;2023-10-19T03:08:47;99043.41;;;6.82;100.00
16255;BME280;8235;52.198;9.904;2023-10-19T03:11:12;99041.47;;;6.84;100.00
16255;BME280;8235;52.198;9.904;2023-10-19T03:13:39;99032.59;;;6.85;100.00
16255;BME280;8235;52.198;9.904;2023-10-19T03:16:06;99030.69;;;6.87;100.00
16255;BME280;8235;52.198;9.904;2023-10-19T03:18:33;99021.16;;;6.85;100.00
16255;BME280;8235;52.198;9.904;2023-10-19T03:20:59;99030.91;;;6.84;100.00
16255;BME280;8235;52.198;9.904;2023-10-19T03:23:28;99022.00;;;6.85;100.00
16255;BME280;8235;52.198;9.904;2023-10-19T03:25:54;99011.41;;;6.85;100.00
16255;BME280;8235;52.198;9.904;2023-10-19T03:28:38;99014.69;;;6.89;100.00
16255;BME280;8235;52.198;9.904;2023-10-19T03:31:06;99007.59;;;6.89;100.00
16255;BME280;8235;52.198;9.904;2023-10-19T03:33:32;99010.47;;;6.86;100.00
16255;BME280;8235;52.198;9.904;2023-10-19T03:36:01;99007.81;;;6.86;100.00
16255;BME280;8235;52.198;9.904;2023-10-19T03:38:30;98995.66;;;6.84;100.00
16255;BME280;8235;52.198;9.904;2023-10-19T03:41:00;98999.88;;;6.86;100.00
16255;BME280;8235;52.198;9.904;2023-10-19T03:43:32;98998.94;;;6.87;100.00
16255;BME280;8235;52.198;9.904;2023-10-19T03:45:58;98989.28;;;6.86;100.00
16255;BME280;8235;52.198;9.904;2023-10-19T03:48:29;98983.16;;;6.86;100.00
16255;BME280;8235;52.198;9.904;2023-10-19T03:51:02;98980.50;;;6.86;100.00
16255;BME280;8235;52.198;9.904;2023-10-19T03:53:31;98979.66;;;6.85;100.00
16255;BME280;8235;52.198;9.904;2023-10-19T03:55:58;98978.72;;;6.86;100.00
16255;BME280;8235;52.198;9.904;2023-10-19T03:58:24;98966.31;;;6.87;100.00
16255;BME280;8235;52.198;9.904;2023-10-19T04:00:54;98966.09;;;6.90;100.00
16255;BME280;8235;52.198;9.904;2023-10-19T04:03:26;98976.81;;;6.88;100.00
16255;BME280;8235;52.198;9.904;2023-10-19T04:05:55;98970.56;;;6.89;100.00
16255;BME280;8235;52.198;9.904;2023-10-19T04:08:25;98970.78;;;6.86;100.00
16255;BME280;8235;52.198;9.904;2023-10-19T04:10:53;98968.25;;;6.85;100.00
16255;BME280;8235;52.198;9.904;2023-10-19T04:13:34;98962.84;;;6.86;100.00
16255;BME280;8235;52.198;9.904;2023-10-19T04:16:03;98949.59;;;6.86;100.00
16255;BME280;8235;52.198;9.904;2023-10-19T04:18:30;98951.28;;;6.87;100.00
16255;BME280;8235;52.198;9.904;2023-10-19T04:21:00;98947.91;;;6.85;100.00
16255;BME280;8235;52.198;9.904;2023-10-19T04:23:27;98954.16;;;6.84;100.00
16255;BME280;8235;52.198;9.904;2023-10-19T04:25:56;98953.44;;;6.82;100.00
16255;BME280;8235;52.198;9.904;2023-10-19T04:28:23;98937.66;;;6.81;100.00
16255;BME280;8235;52.198;9.904;2023-10-19T04:31:03;98939.34;;;6.82;100.00
16255;BME280;8235;52.198;9.904;2023-10-19T04:33:32;98947.91;;;6.85;100.00
16255;BME280;8235;52.198;9.904;2023-10-19T04:35:59;98939.88;;;6.87;100.00
16255;BME280;8235;52.198;9.904;2023-10-19T04:38:26;98946.97;;;6.86;100.00
16255;BME280;8235;52.198;9.904;2023-10-19T04:41:03;98937.31;;;6.85;100.00
16255;BME280;8235;52.198;9.904;2023-10-19T04:43:29;98930.47;;;6.83;100.00
16255;BME280;8235;52.198;9.904;2023-10-19T04:45:56;98918.19;;;6.82;100.00
16255;BME280;8235;52.198;9.904;2023-10-19T04:48:24;98916.66;;;6.79;100.00
16255;BME280;8235;52.198;9.904;2023-10-19T04:50:50;98925.53;;;6.78;100.00
16255;BME280;8235;52.198;9.904;2023-10-19T04:53:17;98919.16;;;6.81;100.00
16255;BME280;8235;52.198;9.904;2023-10-19T04:55:45;98920.13;;;6.80;100.00
16255;BME280;8235;52.198;9.904;2023-10-19T04:58:13;98911.34;;;6.79;100.00
16255;BME280;8235;52.198;9.904;2023-10-19T05:00:40;98914.84;;;6.80;100.00
16255;BME280;8235;52.198;9.904;2023-10-19T05:03:06;98913.03;;;6.80;100.00
16255;BME280;8235;52.198;9.904;2023-10-19T05:05:33;98905.81;;;6.82;100.00
16255;BME280;8235;52.198;9.904;2023-10-19T05:08:01;98901.47;;;6.81;100.00
16255;BME280;8235;52.198;9.904;2023-10-19T05:10:27;98897.41;;;6.77;100.00
16255;BME280;8235;52.198;9.904;2023-10-19T05:12:54;98895.47;;;6.79;100.00
16255;BME280;8235;52.198;9.904;2023-10-19T05:15:22;98889.09;;;6.82;100.00
16255;BME280;8235;52.198;9.904;2023-10-19T05:17:48;98891.63;;;6.83;100.00
16255;BME280;8235;52.198;9.904;2023-10-19T05:20:15;98890.66;;;6.84;100.00
16255;BME280;8235;52.198;9.904;2023-10-19T05:22:41;98892.56;;;6.82;100.00
16255;BME280;8235;52.198;9.904;2023-10-19T05:25:08;98900.50;;;6.82;100.00
16255;BME280;8235;52.198;9.904;2023-10-19T05:27:34;98897.88;;;6.82;100.00
16255;BME280;8235;52.198;9.904;2023-10-19T05:30:01;98897.16;;;6.80;100.00
16255;BME280;8235;52.198;9.904;2023-10-19T05:32:31;98893.41;;;6.83;100.00
16255;BME280;8235;52.198;9.904;2023-10-19T05:34:58;98898.81;;;6.81;100.00
16255;BME280;8235;52.198;9.904;2023-10-19T05:37:29;98892.69;;;6.81;100.00
16255;BME280;8235;52.198;9.904;2023-10-19T05:39:56;98899.09;;;6.78;100.00
16255;BME280;8235;52.198;9.904;2023-10-19T05:42:22;98907.97;;;6.77;100.00
16255;BME280;8235;52.198;9.904;2023-10-19T05:44:49;98918.56;;;6.77;100.00
16255;BME280;8235;52.198;9.904;2023-10-19T05:47:15;98912.41;;;6.77;100.00
16255;BME280;8235;52.198;9.904;2023-10-19T05:49:43;98913.25;;;6.77;100.00
16255;BME280;8235;52.198;9.904;2023-10-19T05:52:09;98908.31;;;6.73;100.00
16255;BME280;8235;52.198;9.904;2023-10-19T05:54:36;98917.31;;;6.70;100.00
16255;BME280;8235;52.198;9.904;2023-10-19T05:57:03;98918.28;;;6.69;100.00
16255;BME280;8235;52.198;9.904;2023-10-19T05:59:33;98922.59;;;6.70;100.00
16255;BME280;8235;52.198;9.904;2023-10-19T06:02:00;98921.75;;;6.70;100.00
16255;BME280;8235;52.198;9.904;2023-10-19T06:04:26;98927.06;;;6.70;100.00
16255;BME280;8235;52.198;9.904;2023-10-19T06:06:54;98919.00;;;6.71;100.00
16255;BME280;8235;52.198;9.904;2023-10-19T06:09:21;98921.44;;;6.74;100.00
16255;BME280;8235;52.198;9.904;2023-10-19T06:11:54;98917.31;;;6.70;100.00
16255;BME280;8235;52.198;9.904;2023-10-19T06:14:21;98925.75;;;6.75;100.00
16255;BME280;8235;52.198;9.904;2023-10-19T06:16:47;98934.22;;;6.80;100.00
16255;BME280;8235;52.198;9.904;2023-10-19T06:19:13;98931.41;;;6.82;100.00
16255;BME280;8235;52.198;9.904;2023-10-19T06:21:41;98928.66;;;6.83;100.00
16255;BME280;8235;52.198;9.904;2023-10-19T06:24:09;98924.44;;;6.81;100.00
16255;BME280;8235;52.198;9.904;2023-10-19T06:26:39;98919.03;;;6.82;100.00
16255;BME280;8235;52.198;9.904;2023-10-19T06:29:06;98931.56;;;6.80;100.00
16255;BME280;8235;52.198;9.904;2023-10-19T06:31:32;98925.28;;;6.81;100.00
16255;BME280;8235;52.198;9.904;2023-10-19T06:33:58;98917.34;;;6.81;100.00
16255;BME280;8235;52.198;9.904;2023-10-19T06:36:25;98917.34;;;6.81;100.00
16255;BME280;8235;52.198;9.904;2023-10-19T06:38:52;98917.22;;;6.83;100.00
16255;BME280;8235;52.198;9.904;2023-10-19T06:41:20;98916.16;;;6.85;100.00
16255;BME280;8235;52.198;9.904;2023-10-19T06:43:47;98907.03;;;6.89;100.00
16255;BME280;8235;52.198;9.904;2023-10-19T06:46:13;98917.63;;;6.89;100.00
16255;BME280;8235;52.198;9.904;2023-10-19T06:48:40;98902.09;;;6.85;100.00
16255;BME280;8235;52.198;9.904;2023-10-19T06:51:07;98911.81;;;6.84;100.00
16255;BME280;8235;52.198;9.904;2023-10-19T06:53:34;98906.53;;;6.84;100.00
16255;BME280;8235;52.198;9.904;2023-10-19T06:56:01;98904.84;;;6.83;100.00
16255;BME280;8235;52.198;9.904;2023-10-19T06:58:30;98902.31;;;6.82;100.00
16255;BME280;8235;52.198;9.904;2023-10-19T07:00:57;98903.28;;;6.81;100.00
16255;BME280;8235;52.198;9.904;2023-10-19T07:03:25;98900.88;;;6.78;100.00
16255;BME280;8235;52.198;9.904;2023-10-19T07:05:53;98908.94;;;6.76;100.00
16255;BME280;8235;52.198;9.904;2023-10-19T07:08:20;98906.28;;;6.76;100.00
16255;BME280;8235;52.198;9.904;2023-10-19T07:10:46;98913.38;;;6.76;100.00
16255;BME280;8235;52.198;9.904;2023-10-19T07:13:14;98904.59;;;6.75;100.00
16255;BME280;8235;52.198;9.904;2023-10-19T07:15:44;98895.69;;;6.76;100.00
16255;BME280;8235;52.198;9.904;2023-10-19T07:18:11;98895.47;;;6.79;100.00
16255;BME280;8235;52.198;9.904;2023-10-19T07:20:37;98899.66;;;6.82;100.00
16255;BME280;8235;52.198;9.904;2023-10-19T07:23:04;98897.97;;;6.81;100.00
16255;BME280;8235;52.198;9.904;2023-10-19T07:25:35;98900.50;;;6.82;100.00
16255;BME280;8235;52.198;9.904;2023-10-19T07:28:08;98905.81;;;6.82;100.00
16255;BME280;8235;52.198;9.904;2023-10-19T07:30:34;98908.94;;;6.87;100.00
16255;BME280;8235;52.198;9.904;2023-10-19T07:33:03;98909.69;;;6.89;100.00
16255;BME280;8235;52.198;9.904;2023-10-19T07:35:34;98901.97;;;6.86;100.00
16255;BME280;8235;52.198;9.904;2023-10-19T07:38:03;98898.13;;;6.90;100.00
16255;BME280;8235;52.198;9.904;2023-10-19T07:40:30;98891.78;;;6.93;100.00
16255;BME280;8235;52.198;9.904;2023-10-19T07:42:57;98892.84;;;6.90;100.00
16255;BME280;8235;52.198;9.904;2023-10-19T07:45:23;98903.44;;;6.90;100.00
16255;BME280;8235;52.198;9.904;2023-10-19T07:47:50;98902.47;;;6.91;100.00
16255;BME280;8235;52.198;9.904;2023-10-19T07:50:18;98899.94;;;6.90;100.00
16255;BME280;8235;52.198;9.904;2023-10-19T07:52:50;98898.03;;;6.92;100.00
16255;BME280;8235;52.198;9.904;2023-10-19T07:55:17;98897.69;;;6.96;100.00
16255;BME280;8235;52.198;9.904;2023-10-19T07:57:44;98898.53;;;6.97;100.00
16255;BME280;8235;52.198;9.904;2023-10-19T08:00:12;98904.28;;;7.02;100.00
16255;BME280;8235;52.198;9.904;2023-10-19T08:02:40;98908.00;;;7.00;100.00
16255;BME280;8235;52.198;9.904;2023-10-19T08:05:07;98901.63;;;7.02;100.00
16255;BME280;8235;52.198;9.904;2023-10-19T08:07:38;98898.16;;;7.02;100.00
16255;BME280;8235;52.198;9.904;2023-10-19T08:10:08;98902.25;;;7.06;100.00
16255;BME280;8235;52.198;9.904;2023-10-19T08:12:36;98901.06;;;7.10;100.00
16255;BME280;8235;52.198;9.904;2023-10-19T08:15:03;98894.69;;;7.12;100.00
16255;BME280;8235;52.198;9.904;2023-10-19T08:17:31;98892.91;;;7.13;100.00
16255;BME280;8235;52.198;9.904;2023-10-19T08:19:59;98896.72;;;7.09;100.00
16255;BME280;8235;52.198;9.904;2023-10-19T08:22:27;98897.34;;;7.12;100.00
16255;BME280;8235;52.198;9.904;2023-10-19T08:24:57;98903.50;;;7.13;100.00
16255;BME280;8235;52.198;9.904;2023-10-19T08:27:23;98892.66;;;7.16;100.00
16255;BME280;8235;52.198;9.904;2023-10-19T08:29:50;98904.78;;;7.18;100.00
16255;BME280;8235;52.198;9.904;2023-10-19T08:32:16;98905.41;;;7.22;100.00
16255;BME280;8235;52.198;9.904;2023-10-19T08:34:43;98899.78;;;7.26;100.00
16255;BME280;8235;52.198;9.904;2023-10-19T08:37:11;98899.03;;;7.24;100.00
16255;BME280;8235;52.198;9.904;2023-10-19T08:39:38;98896.88;;;7.29;100.00
16255;BME280;8235;52.198;9.904;2023-10-19T08:42:07;98908.78;;;7.35;100.00
16255;BME280;8235;52.198;9.904;2023-10-19T08:44:35;98910.25;;;7.39;100.00
16255;BME280;8235;52.198;9.904;2023-10-19T08:47:02;98910.97;;;7.41;100.00
16255;BME280;8235;52.198;9.904;2023-10-19T08:49:30;98914.34;;;7.43;100.00
16255;BME280;8235;52.198;9.904;2023-10-19T08:51:58;98915.31;;;7.42;100.00
16255;BME280;8235;52.198;9.904;2023-10-19T08:54:29;98913.63;;;7.41;100.00
16255;BME280;8235;52.198;9.904;2023-10-19T08:56:59;98920.38;;;7.45;100.00
16255;BME280;8235;52.198;9.904;2023-10-19T08:59:27;98922.28;;;7.43;100.00
16255;BME280;8235;52.198;9.904;2023-10-19T09:02:00;98913.63;;;7.41;100.00
16255;BME280;8235;52.198;9.904;2023-10-19T09:04:26;98909.78;;;7.45;100.00
16255;BME280;8235;52.198;9.904;2023-10-19T09:06:53;98901.09;;;7.43;100.00
16255;BME280;8235;52.198;9.904;2023-10-19T09:09:20;98897.50;;;7.44;100.00
16255;BME280;8235;52.198;9.904;2023-10-19T09:11:50;98901.59;;;7.48;100.00
16255;BME280;8235;52.198;9.904;2023-10-19T09:14:31;98902.78;;;7.55;100.00
16255;BME280;8235;52.198;9.904;2023-10-19T09:16:59;98899.16;;;7.56;100.00
16255;BME280;8235;52.198;9.904;2023-10-19T09:19:36;98890.97;;;7.59;100.00
16255;BME280;8235;52.198;9.904;2023-10-19T09:22:02;98891.94;;;7.58;100.00
16255;BME280;8235;52.198;9.904;2023-10-19T09:24:33;98889.28;;;7.58;100.00
16255;BME280;8235;52.198;9.904;2023-10-19T09:26:59;98885.56;;;7.61;100.00
16255;BME280;8235;52.198;9.904;2023-10-19T09:29:27;98881.22;;;7.60;100.00
16255;BME280;8235;52.198;9.904;2023-10-19T09:31:58;98890.03;;;7.60;100.00
16255;BME280;8235;52.198;9.904;2023-10-19T09:34:29;98886.28;;;7.63;100.00
16255;BME280;8235;52.198;9.904;2023-10-19T09:36:58;98889.66;;;7.65;100.00
16255;BME280;8235;52.198;9.904;2023-10-19T09:39:26;98885.94;;;7.68;100.00
16255;BME280;8235;52.198;9.904;2023-10-19T09:42:00;98880.00;;;7.75;100.00
16255;BME280;8235;52.198;9.904;2023-10-19T09:44:28;98882.41;;;7.78;100.00
16255;BME280;8235;52.198;9.904;2023-10-19T09:47:03;98869.41;;;7.75;100.00
16255;BME280;8235;52.198;9.904;2023-10-19T09:49:30;98871.69;;;7.80;100.00
16255;BME280;8235;52.198;9.904;2023-10-19T09:51:57;98875.91;;;7.82;100.00
16255;BME280;8235;52.198;9.904;2023-10-19T09:54:27;98884.47;;;7.86;100.00
16255;BME280;8235;52.198;9.904;2023-10-19T09:57:02;98875.16;;;7.91;100.00
16255;BME280;8235;52.198;9.904;2023-10-19T09:59:33;98877.44;;;7.96;100.00
16255;BME280;8235;52.198;9.904;2023-10-19T10:02:06;98874.06;;;7.94;100.00
16255;BME280;8235;52.198;9.904;2023-10-19T10:04:36;98868.28;;;7.89;100.00
16255;BME280;8235;52.198;9.904;2023-10-19T10:07:04;98878.66;;;7.92;100.00
16255;BME280;8235;52.198;9.904;2023-10-19T10:09:34;98880.81;;;7.98;100.00
16255;BME280;8235;52.198;9.904;2023-10-19T10:12:19;98868.28;;;8.00;100.00
16255;BME280;8235;52.198;9.904;2023-10-19T10:14:55;98878.66;;;8.03;100.00
16255;BME280;8235;52.198;9.904;2023-10-19T10:17:24;98868.75;;;8.05;100.00
16255;BME280;8235;52.198;9.904;2023-10-19T10:19:53;98867.75;;;8.06;100.00
16255;BME280;8235;52.198;9.904;2023-10-19T10:22:21;98863.06;;;8.10;100.00
16255;BME280;8235;52.198;9.904;2023-10-19T10:24:53;98875.00;;;8.15;100.00
16255;BME280;8235;52.198;9.904;2023-10-19T10:27:21;98866.91;;;8.17;100.00
16255;BME280;8235;52.198;9.904;2023-10-19T10:29:54;98862.22;;;8.20;100.00
16255;BME280;8235;52.198;9.904;2023-10-19T10:32:47;98844.94;;;8.26;100.00
16255;BME280;8235;52.198;9.904;2023-10-19T10:38:19;98840.59;;;8.36;100.00
16255;BME280;8235;52.198;9.904;2023-10-19T10:40:46;98835.47;;;8.44;100.00
16255;BME280;8235;52.198;9.904;2023-10-19T10:43:14;98840.16;;;8.52;100.00
16255;BME280;8235;52.198;9.904;2023-10-19T10:45:40;98833.63;;;8.56;100.00
16255;BME280;8235;52.198;9.904;2023-10-19T10:48:12;98833.63;;;8.56;100.00
16255;BME280;8235;52.198;9.904;2023-10-19T10:50:39;98833.94;;;8.62;100.00
16255;BME280;8235;52.198;9.904;2023-10-19T10:53:07;98845.84;;;8.68;100.00
16255;BME280;8235;52.198;9.904;2023-10-19T10:55:33;98836.94;;;8.69;100.00
16255;BME280;8235;52.198;9.904;2023-10-19T10:57:59;98837.91;;;8.68;100.00
16255;BME280;8235;52.198;9.904;2023-10-19T11:00:26;98837.06;;;8.67;100.00
16255;BME280;8235;52.198;9.904;2023-10-19T11:03:00;98840.81;;;8.65;100.00
16255;BME280;8235;52.198;9.904;2023-10-19T11:05:28;98829.34;;;8.64;100.00
16255;BME280;8235;52.198;9.904;2023-10-19T11:08:06;98823.06;;;8.65;100.00
16255;BME280;8235;52.198;9.904;2023-10-19T11:10:33;98825.47;;;8.68;100.00
16255;BME280;8235;52.198;9.904;2023-10-19T11:13:01;98835.13;;;8.69;100.00
16255;BME280;8235;52.198;9.904;2023-10-19T11:15:27;98821.47;;;8.74;100.00
16255;BME280;8235;52.198;9.904;2023-10-19T11:17:54;98816.03;;;8.76;100.00
16255;BME280;8235;52.198;9.904;2023-10-19T11:20:21;98824.13;;;8.74;100.00
16255;BME280;8235;52.198;9.904;2023-10-19T11:22:50;98821.34;;;8.76;100.00
16255;BME280;8235;52.198;9.904;2023-10-19T11:25:18;98819.66;;;8.75;100.00
16255;BME280;8235;52.198;9.904;2023-10-19T11:27:46;98816.75;;;8.78;100.00
16255;BME280;8235;52.198;9.904;2023-10-19T11:30:13;98825.25;;;8.81;100.00
16255;BME280;8235;52.198;9.904;2023-10-19T11:32:40;98825.47;;;8.89;100.00
16255;BME280;8235;52.198;9.904;2023-10-19T11:35:07;98830.25;;;8.95;100.00
16255;BME280;8235;52.198;9.904;2023-10-19T11:37:45;98823.94;;;8.96;100.00
16255;BME280;8235;52.198;9.904;2023-10-19T11:40:14;98820.66;;;9.04;100.00
16255;BME280;8235;52.198;9.904;2023-10-19T11:42:40;98825.44;;;9.10;100.00
16255;BME280;8235;52.198;9.904;2023-10-19T11:45:07;98817.78;;;9.17;100.00
16255;BME280;8235;52.198;9.904;2023-10-19T11:47:34;98820.41;;;9.17;100.00
16255;BME280;8235;52.198;9.904;2023-10-19T11:50:01;98823.34;;;9.14;100.00
16255;BME280;8235;52.198;9.904;2023-10-19T11:52:27;98818.31;;;9.11;100.00
16255;BME280;8235;52.198;9.904;2023-10-19T11:54:55;98824.75;;;9.18;100.00
16255;BME280;8235;52.198;9.904;2023-10-19T11:57:23;98827.03;;;9.22;100.00
16255;BME280;8235;52.198;9.904;2023-10-19T11:59:50;98828.00;;;9.21;100.00
16255;BME280;8235;52.198;9.904;2023-10-19T12:02:18;98820.75;;;9.23;100.00
16255;BME280;8235;52.198;9.904;2023-10-19T12:04:45;98809.00;;;9.26;100.00
16255;BME280;8235;52.198;9.904;2023-10-19T12:07:12;98811.28;;;9.30;100.00
16255;BME280;8235;52.198;9.904;2023-10-19T12:09:38;98811.00;;;9.33;100.00
16255;BME280;8235;52.198;9.904;2023-10-19T12:12:06;98817.84;;;9.36;100.00
16255;BME280;8235;52.198;9.904;2023-10-19T12:14:36;98809.75;;;9.37;100.00
16255;BME280;8235;52.198;9.904;2023-10-19T12:17:03;98813.81;;;9.42;100.00
16255;BME280;8235;52.198;9.904;2023-10-19T12:19:32;98813.44;;;9.46;100.00
16255;BME280;8235;52.198;9.904;2023-10-19T12:21:59;98806.31;;;9.47;100.00
16255;BME280;8235;52.198;9.904;2023-10-19T12:24:26;98802.53;;;9.49;100.00
16255;BME280;8235;52.198;9.904;2023-10-19T12:26:54;98803.09;;;9.53;100.00
16255;BME280;8235;52.198;9.904;2023-10-19T12:29:21;98808.13;;;9.56;100.00
16255;BME280;8235;52.198;9.904;2023-10-19T12:31:49;98810.53;;;9.59;100.00
16255;BME280;8235;52.198;9.904;2023-10-19T12:34:16;98804.69;;;9.65;100.00
16255;BME280;8235;52.198;9.904;2023-10-19T12:36:42;98800.59;;;9.70;100.00
16255;BME280;8235;52.198;9.904;2023-10-19T12:39:11;98788.72;;;9.74;100.00
16255;BME280;8235;52.198;9.904;2023-10-19T12:41:59;98796.97;;;9.71;100.00
16255;BME280;8235;52.198;9.904;2023-10-19T12:44:26;98802.03;;;9.74;100.00
16255;BME280;8235;52.198;9.904;2023-10-19T12:46:55;98804.81;;;9.73;100.00
16255;BME280;8235;52.198;9.904;2023-10-19T12:49:22;98794.19;;;9.73;100.00
16255;BME280;8235;52.198;9.904;2023-10-19T12:51:51;98789.16;;;9.80;100.00
16255;BME280;8235;52.198;9.904;2023-10-19T12:54:18;98788.59;;;9.86;100.00
16255;BME280;8235;52.198;9.904;2023-10-19T12:56:44;98791.69;;;9.91;100.00
16255;BME280;8235;52.198;9.904;2023-10-19T12:59:14;98788.50;;;9.97;100.00
16255;BME280;8235;52.198;9.904;2023-10-19T13:01:43;98801.53;;;10.00;100.00
16255;BME280;8235;52.198;9.904;2023-10-19T13:04:14;98790.75;;;10.01;100.00
16255;BME280;8235;52.198;9.904;2023-10-19T13:06:43;98786.94;;;10.04;100.00
16255;BME280;8235;52.198;9.904;2023-10-19T13:09:12;98775.91;;;10.08;100.00
16255;BME280;8235;52.198;9.904;2023-10-19T13:11:41;98781.06;;;10.10;100.00
16255;BME280;8235;52.198;9.904;2023-10-19T13:14:09;98777.97;;;10.05;100.00
16255;BME280;8235;52.198;9.904;2023-10-19T13:16:37;98785.69;;;10.08;100.00
16255;BME280;8235;52.198;9.904;2023-10-19T13:19:03;98789.47;;;10.05;100.00
16255;BME280;8235;52.198;9.904;2023-10-19T13:21:39;98786.94;;;10.04;100.00